createdAt,value
2023-03-14T00:00:35.122Z,3.71
2023-03-14T00:10:34.165Z,4.51
2023-03-14T00:20:42.319Z,3.08
2023-03-14T00:30:51.009Z,6.62
2023-03-14T00:40:59.104Z,6.19
2023-03-14T00:51:07.744Z,7.56
2023-03-14T01:01:27.143Z,5.51
2023-03-14T01:11:27.672Z,3.62
2023-03-14T01:31:44.942Z,2.93
2023-03-14T01:41:41.224Z,3.04
2023-03-14T01:51:40.314Z,2.45
2023-03-14T02:01:48.236Z,3.42
2023-03-14T02:11:57.824Z,2.94
2023-03-14T02:21:57.631Z,4.48
2023-03-14T02:32:05.992Z,3.23
2023-03-14T02:42:13.963Z,2.82
2023-03-14T02:52:22.132Z,2.53
2023-03-14T03:02:30.332Z,2.75
2023-03-14T03:12:39.794Z,2.58
2023-03-14T03:22:47.777Z,4.35
2023-03-14T03:32:58.015Z,3.44
2023-03-14T03:43:05.435Z,3.27
2023-03-14T03:53:15.510Z,3.85
2023-03-14T04:03:20.341Z,5.18
2023-03-14T04:13:30.321Z,3.91
2023-03-14T04:23:38.389Z,3.39
2023-03-14T04:33:46.183Z,4.58
2023-03-14T04:43:54.117Z,5.16
2023-03-14T04:54:02.301Z,3.61
2023-03-14T05:04:10.482Z,3.51
2023-03-14T05:14:18.607Z,4.56
2023-03-14T05:24:29.513Z,4.88
2023-03-14T05:34:27.749Z,5.97
2023-03-14T05:44:36.001Z,8.41
2023-03-14T05:54:45.377Z,6.47
2023-03-14T06:04:53.391Z,7.68
2023-03-14T06:15:03.100Z,6.44
2023-03-14T06:25:11.271Z,6.84
2023-03-14T06:35:20.268Z,6.96
2023-03-14T06:45:31.626Z,8.47
2023-03-14T06:55:29.621Z,6.34
2023-03-14T07:05:38.302Z,6.11
2023-03-14T07:15:47.331Z,9.17
2023-03-14T07:25:55.327Z,4.24
2023-03-14T07:36:03.370Z,5.78
2023-03-14T07:46:13.919Z,9.86
2023-03-14T07:56:11.772Z,9.06
2023-03-14T08:06:19.612Z,6.98
2023-03-14T08:16:27.603Z,9.05
2023-03-14T08:26:35.595Z,5.4
2023-03-14T08:36:43.564Z,6.57
2023-03-14T08:46:51.470Z,5.82
2023-03-14T08:57:00.491Z,6.76
2023-03-14T09:07:10.506Z,8.11
2023-03-14T09:17:19.598Z,6.98
2023-03-14T09:27:27.547Z,5.35
2023-03-14T09:37:37.232Z,7.36
2023-03-14T09:47:56.729Z,5.83
2023-03-14T09:57:51.261Z,9
2023-03-14T10:07:59.981Z,6.5
2023-03-14T10:18:07.986Z,9.03
2023-03-14T10:28:15.942Z,7.33
2023-03-14T10:38:26.256Z,7.18
2023-03-14T10:48:24.839Z,8.54
2023-03-14T10:58:33.329Z,8.67
2023-03-14T11:08:45.230Z,8.13
2023-03-14T11:18:43.342Z,5.16
2023-03-14T11:28:53.208Z,5.15
2023-03-14T11:39:01.450Z,6.34
2023-03-14T11:49:09.575Z,5.83
2023-03-14T11:59:17.574Z,7.28
2023-03-14T12:09:25.602Z,6.87
2023-03-14T12:19:33.493Z,9.87
2023-03-14T12:29:41.418Z,9.35
2023-03-14T12:39:49.346Z,6.3
2023-03-14T12:49:58.289Z,5.01
2023-03-14T13:00:07.930Z,6.13
2023-03-14T13:10:06.973Z,7.79
2023-03-14T13:20:14.334Z,6.76
2023-03-14T13:30:23.788Z,6.87
2023-03-14T13:40:33.971Z,6.18
2023-03-14T13:50:31.986Z,8.26
2023-03-14T14:00:40.162Z,8.5
2023-03-14T14:10:48.502Z,7.52
2023-03-14T14:20:57.578Z,6.64
2023-03-14T14:31:05.764Z,5.63
2023-03-14T14:41:13.685Z,5.66
2023-03-14T14:51:21.242Z,4.03
2023-03-14T15:01:33.703Z,5.47
2023-03-14T15:11:31.977Z,6.57
2023-03-14T15:21:41.735Z,5.77
2023-03-14T15:31:42.101Z,7.43
2023-03-14T15:41:50.101Z,5.2
2023-03-14T15:51:58.349Z,6.46
2023-03-14T16:02:17.315Z,9.03
2023-03-14T16:12:26.023Z,8.06
2023-03-14T16:22:25.712Z,9.75
2023-03-14T16:32:25.309Z,4.58
2023-03-14T16:42:25.131Z,5.06
2023-03-14T16:52:34.429Z,7.27
2023-03-14T17:02:45.027Z,4.98
2023-03-14T17:12:52.050Z,6.27
2023-03-14T17:23:00.145Z,6.59
2023-03-14T17:33:08.424Z,4.07
2023-03-14T17:43:16.496Z,6.99
2023-03-14T17:53:27.458Z,5.48
2023-03-14T18:03:25.497Z,5.56
2023-03-14T18:13:36.316Z,3.83
2023-03-14T18:23:42.290Z,5.52
2023-03-14T18:33:51.750Z,3.92
2023-03-14T18:44:00.539Z,4.46
2023-03-14T18:54:10.506Z,3.68
2023-03-14T19:04:17.922Z,4.23
2023-03-14T19:14:28.313Z,5.25
2023-03-14T19:24:28.355Z,7.88
2023-03-14T19:34:37.038Z,7.54
2023-03-14T19:44:47.600Z,10.78
2023-03-14T19:54:47.268Z,10.98
2023-03-14T20:04:48.663Z,9.49
2023-03-14T20:15:00.558Z,12.56
2023-03-14T20:25:00.174Z,11.4
2023-03-14T20:35:07.350Z,11.36
2023-03-14T20:45:15.335Z,12.13
2023-03-14T20:55:25.542Z,11.83
2023-03-14T21:05:22.967Z,9.3
2023-03-14T21:15:30.748Z,9.54
2023-03-14T21:25:41.932Z,11.01
2023-03-14T21:35:48.154Z,8.7
2023-03-14T21:46:00.187Z,11.12
2023-03-14T21:56:02.545Z,11.7
2023-03-14T22:06:02.072Z,11.21
2023-03-14T22:16:12.991Z,12.28
2023-03-14T22:26:02.205Z,11.64
2023-03-14T22:36:11.898Z,14.37
2023-03-14T22:46:12.952Z,11.63
2023-03-14T22:56:20.164Z,11.53
2023-03-14T23:06:28.269Z,13.79
2023-03-14T23:16:40.448Z,12.62
2023-03-14T23:26:46.668Z,10.06
2023-03-14T23:36:54.697Z,12.28
2023-03-14T23:47:02.553Z,12.57
2023-03-14T23:57:11.364Z,10.33
